sensor_id;sensor_type;location;lat;lon;timestamp;P1;P2;P0
55304;PMS7003;65692;51.378;19.824;2023-12-14T00:01:42;66.50;51.00;33.00
55304;PMS7003;65692;51.378;19.824;2023-12-14T00:04:08;63.50;48.75;32.00
55304;PMS7003;65692;51.378;19.824;2023-12-14T00:06:35;72.75;54.50;33.50
55304;PMS7003;65692;51.378;19.824;2023-12-14T00:09:01;74.00;50.25;33.75
55304;PMS7003;65692;51.378;19.824;2023-12-14T00:11:28;74.00;50.75;35.75
55304;PMS7003;65692;51.378;19.824;2023-12-14T00:13:55;61.75;48.50;32.00
55304;PMS7003;65692;51.378;19.824;2023-12-14T00:16:21;67.50;50.50;33.00
55304;PMS7003;65692;51.378;19.824;2023-12-14T00:18:48;68.75;51.50;33.25
55304;PMS7003;65692;51.378;19.824;2023-12-14T00:21:15;66.50;51.25;33.50
55304;PMS7003;65692;51.378;19.824;2023-12-14T00:23:41;61.25;48.75;33.00
55304;PMS7003;65692;51.378;19.824;2023-12-14T00:26:08;68.25;51.00;30.25
55304;PMS7003;65692;51.378;19.824;2023-12-14T00:28:35;68.25;53.00;34.00
55304;PMS7003;65692;51.378;19.824;2023-12-14T00:31:01;45.25;30.75;25.25
55304;PMS7003;65692;51.378;19.824;2023-12-14T00:33:28;59.00;43.75;27.00
55304;PMS7003;65692;51.378;19.824;2023-12-14T00:35:55;46.00;38.25;27.50
55304;PMS7003;65692;51.378;19.824;2023-12-14T00:38:22;58.75;43.50;29.25
55304;PMS7003;65692;51.378;19.824;2023-12-14T00:40:48;58.00;45.25;29.25
55304;PMS7003;65692;51.378;19.824;2023-12-14T00:43:15;61.00;44.00;29.50
55304;PMS7003;65692;51.378;19.824;2023-12-14T00:45:42;49.50;33.50;25.00
55304;PMS7003;65692;51.378;19.824;2023-12-14T00:48:08;63.75;41.75;27.00
55304;PMS7003;65692;51.378;19.824;2023-12-14T00:50:35;58.75;43.75;31.50
55304;PMS7003;65692;51.378;19.824;2023-12-14T00:53:02;50.50;42.00;29.00
55304;PMS7003;65692;51.378;19.824;2023-12-14T00:55:28;53.00;43.50;29.00
55304;PMS7003;65692;51.378;19.824;2023-12-14T00:57:55;55.00;43.25;30.25
55304;PMS7003;65692;51.378;19.824;2023-12-14T01:00:21;60.75;44.50;30.00
55304;PMS7003;65692;51.378;19.824;2023-12-14T01:02:48;42.75;39.50;29.75
55304;PMS7003;65692;51.378;19.824;2023-12-14T01:05:14;54.50;43.50;29.00
55304;PMS7003;65692;51.378;19.824;2023-12-14T01:07:41;47.50;42.25;28.00
55304;PMS7003;65692;51.378;19.824;2023-12-14T01:10:08;38.25;32.50;24.25
55304;PMS7003;65692;51.378;19.824;2023-12-14T01:12:34;40.00;38.75;27.00
55304;PMS7003;65692;51.378;19.824;2023-12-14T01:15:01;44.50;37.75;25.75
55304;PMS7003;65692;51.378;19.824;2023-12-14T01:17:28;52.75;41.50;28.00
55304;PMS7003;65692;51.378;19.824;2023-12-14T01:19:55;59.25;45.75;30.00
55304;PMS7003;65692;51.378;19.824;2023-12-14T01:22:22;50.75;40.25;27.25
55304;PMS7003;65692;51.378;19.824;2023-12-14T01:24:48;55.25;42.50;28.00
55304;PMS7003;65692;51.378;19.824;2023-12-14T01:27:15;59.75;43.25;28.75
55304;PMS7003;65692;51.378;19.824;2023-12-14T01:29:49;55.25;41.75;26.50
55304;PMS7003;65692;51.378;19.824;2023-12-14T01:32:16;51.25;44.25;30.00
55304;PMS7003;65692;51.378;19.824;2023-12-14T01:34:43;42.75;30.75;26.50
55304;PMS7003;65692;51.378;19.824;2023-12-14T01:37:09;61.00;43.00;28.00
55304;PMS7003;65692;51.378;19.824;2023-12-14T01:39:36;61.75;45.75;32.00
55304;PMS7003;65692;51.378;19.824;2023-12-14T01:42:02;56.75;42.75;29.00
55304;PMS7003;65692;51.378;19.824;2023-12-14T01:44:29;48.00;41.00;27.50
55304;PMS7003;65692;51.378;19.824;2023-12-14T01:46:56;52.25;43.25;28.00
55304;PMS7003;65692;51.378;19.824;2023-12-14T01:49:22;51.00;40.50;26.75
55304;PMS7003;65692;51.378;19.824;2023-12-14T01:51:49;47.75;35.00;27.25
55304;PMS7003;65692;51.378;19.824;2023-12-14T01:54:15;49.75;43.50;27.25
55304;PMS7003;65692;51.378;19.824;2023-12-14T01:56:42;54.00;38.75;26.25
55304;PMS7003;65692;51.378;19.824;2023-12-14T01:59:09;49.00;43.00;30.75
55304;PMS7003;65692;51.378;19.824;2023-12-14T02:01:43;51.25;38.75;26.25
55304;PMS7003;65692;51.378;19.824;2023-12-14T02:04:10;51.50;41.25;29.00
55304;PMS7003;65692;51.378;19.824;2023-12-14T02:06:37;48.25;41.75;29.00
55304;PMS7003;65692;51.378;19.824;2023-12-14T02:09:04;51.50;40.00;27.50
55304;PMS7003;65692;51.378;19.824;2023-12-14T02:11:30;52.75;44.25;30.25
55304;PMS7003;65692;51.378;19.824;2023-12-14T02:13:57;45.50;41.00;29.00
55304;PMS7003;65692;51.378;19.824;2023-12-14T02:16:24;46.50;40.75;29.00
55304;PMS7003;65692;51.378;19.824;2023-12-14T02:18:51;54.75;40.00;28.75
55304;PMS7003;65692;51.378;19.824;2023-12-14T02:21:17;58.25;41.00;26.50
55304;PMS7003;65692;51.378;19.824;2023-12-14T02:23:45;55.25;43.75;28.75
55304;PMS7003;65692;51.378;19.824;2023-12-14T02:26:12;56.75;41.00;28.50
55304;PMS7003;65692;51.378;19.824;2023-12-14T02:28:39;52.50;40.75;27.75
55304;PMS7003;65692;51.378;19.824;2023-12-14T02:31:06;50.75;44.75;28.50
55304;PMS7003;65692;51.378;19.824;2023-12-14T02:33:32;54.00;42.75;29.25
55304;PMS7003;65692;51.378;19.824;2023-12-14T02:35:59;47.75;44.00;32.50
55304;PMS7003;65692;51.378;19.824;2023-12-14T02:38:26;55.75;44.00;29.00
55304;PMS7003;65692;51.378;19.824;2023-12-14T02:40:53;55.25;43.25;32.00
55304;PMS7003;65692;51.378;19.824;2023-12-14T02:43:20;55.00;46.75;31.75
55304;PMS7003;65692;51.378;19.824;2023-12-14T02:45:46;54.25;42.25;29.25
55304;PMS7003;65692;51.378;19.824;2023-12-14T02:48:13;63.00;49.25;32.50
55304;PMS7003;65692;51.378;19.824;2023-12-14T02:50:40;61.00;46.00;29.50
55304;PMS7003;65692;51.378;19.824;2023-12-14T02:53:06;57.50;44.25;28.25
55304;PMS7003;65692;51.378;19.824;2023-12-14T02:55:33;60.00;41.75;28.25
55304;PMS7003;65692;51.378;19.824;2023-12-14T02:57:59;52.50;45.00;29.50
55304;PMS7003;65692;51.378;19.824;2023-12-14T03:00:26;47.00;39.50;29.25
55304;PMS7003;65692;51.378;19.824;2023-12-14T03:02:53;58.25;43.25;29.75
55304;PMS7003;65692;51.378;19.824;2023-12-14T03:05:20;65.75;44.75;31.75
55304;PMS7003;65692;51.378;19.824;2023-12-14T03:07:46;53.00;44.25;30.50
55304;PMS7003;65692;51.378;19.824;2023-12-14T03:10:13;62.75;42.75;29.00
55304;PMS7003;65692;51.378;19.824;2023-12-14T03:12:40;48.00;39.75;28.50
55304;PMS7003;65692;51.378;19.824;2023-12-14T03:15:07;40.25;36.00;26.25
55304;PMS7003;65692;51.378;19.824;2023-12-14T03:17:34;50.00;36.50;26.25
55304;PMS7003;65692;51.378;19.824;2023-12-14T03:20:01;51.50;41.50;29.00
55304;PMS7003;65692;51.378;19.824;2023-12-14T03:22:29;45.75;35.25;24.75
55304;PMS7003;65692;51.378;19.824;2023-12-14T03:24:56;50.50;41.00;29.00
55304;PMS7003;65692;51.378;19.824;2023-12-14T03:27:23;47.25;40.00;29.75
55304;PMS7003;65692;51.378;19.824;2023-12-14T03:29:51;51.25;43.25;29.00
55304;PMS7003;65692;51.378;19.824;2023-12-14T03:32:17;40.25;38.00;26.00
55304;PMS7003;65692;51.378;19.824;2023-12-14T03:34:44;41.00;30.50;23.00
55304;PMS7003;65692;51.378;19.824;2023-12-14T03:37:10;48.25;31.50;23.00
55304;PMS7003;65692;51.378;19.824;2023-12-14T03:39:37;44.75;37.00;25.75
55304;PMS7003;65692;51.378;19.824;2023-12-14T03:42:04;43.50;35.75;25.00
55304;PMS7003;65692;51.378;19.824;2023-12-14T03:44:30;43.75;35.00;23.00
55304;PMS7003;65692;51.378;19.824;2023-12-14T03:46:57;38.25;35.50;24.00
55304;PMS7003;65692;51.378;19.824;2023-12-14T03:49:24;32.75;30.00;21.75
55304;PMS7003;65692;51.378;19.824;2023-12-14T03:51:51;45.33;31.33;23.00
55304;PMS7003;65692;51.378;19.824;2023-12-14T03:54:17;31.33;25.33;17.33
55304;PMS7003;65692;51.378;19.824;2023-12-14T03:56:44;34.00;28.50;22.75
55304;PMS7003;65692;51.378;19.824;2023-12-14T03:59:11;35.00;26.25;20.00
55304;PMS7003;65692;51.378;19.824;2023-12-14T04:01:37;31.67;28.00;18.67
55304;PMS7003;65692;51.378;19.824;2023-12-14T04:04:07;38.67;29.33;22.00
55304;PMS7003;65692;51.378;19.824;2023-12-14T04:06:33;43.67;32.33;23.00
55304;PMS7003;65692;51.378;19.824;2023-12-14T04:09:00;40.00;29.67;20.00
55304;PMS7003;65692;51.378;19.824;2023-12-14T04:11:27;29.67;28.00;21.33
55304;PMS7003;65692;51.378;19.824;2023-12-14T04:13:53;26.00;21.00;17.00
55304;PMS7003;65692;51.378;19.824;2023-12-14T04:16:21;37.67;22.33;19.00
55304;PMS7003;65692;51.378;19.824;2023-12-14T04:18:51;36.33;26.00;18.33
55304;PMS7003;65692;51.378;19.824;2023-12-14T04:21:18;31.67;24.67;16.67
55304;PMS7003;65692;51.378;19.824;2023-12-14T04:23:45;31.00;24.00;18.33
55304;PMS7003;65692;51.378;19.824;2023-12-14T04:26:12;31.00;24.33;20.00
55304;PMS7003;65692;51.378;19.824;2023-12-14T04:28:40;24.67;22.33;16.33
55304;PMS7003;65692;51.378;19.824;2023-12-14T04:31:07;32.00;25.00;19.67
55304;PMS7003;65692;51.378;19.824;2023-12-14T04:33:33;29.33;24.00;17.33
55304;PMS7003;65692;51.378;19.824;2023-12-14T04:36:00;28.67;23.67;20.00
55304;PMS7003;65692;51.378;19.824;2023-12-14T04:38:27;39.33;28.33;22.33
55304;PMS7003;65692;51.378;19.824;2023-12-14T04:40:53;33.67;29.33;19.67
55304;PMS7003;65692;51.378;19.824;2023-12-14T04:43:20;35.00;29.33;21.67
55304;PMS7003;65692;51.378;19.824;2023-12-14T04:45:47;31.00;26.33;19.00
55304;PMS7003;65692;51.378;19.824;2023-12-14T04:48:13;30.67;24.67;17.00
55304;PMS7003;65692;51.378;19.824;2023-12-14T04:50:40;36.33;26.67;19.33
55304;PMS7003;65692;51.378;19.824;2023-12-14T04:53:07;38.67;29.33;22.67
55304;PMS7003;65692;51.378;19.824;2023-12-14T04:55:34;37.75;26.25;20.00
55304;PMS7003;65692;51.378;19.824;2023-12-14T04:58:01;32.00;27.75;17.50
55304;PMS7003;65692;51.378;19.824;2023-12-14T05:00:28;34.00;27.75;21.50
55304;PMS7003;65692;51.378;19.824;2023-12-14T05:02:54;31.00;28.33;24.67
55304;PMS7003;65692;51.378;19.824;2023-12-14T05:05:21;30.25;27.75;20.75
55304;PMS7003;65692;51.378;19.824;2023-12-14T05:07:47;39.67;27.67;20.67
55304;PMS7003;65692;51.378;19.824;2023-12-14T05:10:14;33.50;27.00;22.00
55304;PMS7003;65692;51.378;19.824;2023-12-14T05:12:41;34.50;30.75;23.00
55304;PMS7003;65692;51.378;19.824;2023-12-14T05:15:08;34.50;27.25;22.00
55304;PMS7003;65692;51.378;19.824;2023-12-14T05:17:35;39.00;30.33;23.00
55304;PMS7003;65692;51.378;19.824;2023-12-14T05:20:04;28.00;25.00;20.33
55304;PMS7003;65692;51.378;19.824;2023-12-14T05:22:31;36.33;29.00;22.00
55304;PMS7003;65692;51.378;19.824;2023-12-14T05:24:58;31.00;27.67;19.33
55304;PMS7003;65692;51.378;19.824;2023-12-14T05:27:25;37.75;28.75;19.25
55304;PMS7003;65692;51.378;19.824;2023-12-14T05:29:52;39.00;30.25;23.25
55304;PMS7003;65692;51.378;19.824;2023-12-14T05:32:19;42.00;35.50;26.00
55304;PMS7003;65692;51.378;19.824;2023-12-14T05:34:45;42.75;34.25;23.00
55304;PMS7003;65692;51.378;19.824;2023-12-14T05:37:12;33.25;29.50;23.00
55304;PMS7003;65692;51.378;19.824;2023-12-14T05:39:41;28.00;26.33;19.00
55304;PMS7003;65692;51.378;19.824;2023-12-14T05:42:07;31.33;31.33;22.00
55304;PMS7003;65692;51.378;19.824;2023-12-14T05:44:34;37.33;30.33;22.00
55304;PMS7003;65692;51.378;19.824;2023-12-14T05:47:00;40.00;34.00;24.67
55304;PMS7003;65692;51.378;19.824;2023-12-14T05:49:27;32.67;28.33;21.00
55304;PMS7003;65692;51.378;19.824;2023-12-14T05:51:54;34.00;23.00;19.33
55304;PMS7003;65692;51.378;19.824;2023-12-14T05:54:20;28.00;26.33;20.33
55304;PMS7003;65692;51.378;19.824;2023-12-14T05:56:47;38.00;32.33;23.00
55304;PMS7003;65692;51.378;19.824;2023-12-14T05:59:13;32.00;26.00;19.00
55304;PMS7003;65692;51.378;19.824;2023-12-14T06:01:40;39.25;28.25;19.50
55304;PMS7003;65692;51.378;19.824;2023-12-14T06:04:09;34.00;31.25;23.25
55304;PMS7003;65692;51.378;19.824;2023-12-14T06:06:39;32.33;26.67;19.00
55304;PMS7003;65692;51.378;19.824;2023-12-14T06:09:06;28.00;25.67;20.00
55304;PMS7003;65692;51.378;19.824;2023-12-14T06:11:33;35.33;29.33;23.33
55304;PMS7003;65692;51.378;19.824;2023-12-14T06:14:00;41.33;28.00;19.00
55304;PMS7003;65692;51.378;19.824;2023-12-14T06:16:27;35.00;28.75;21.25
55304;PMS7003;65692;51.378;19.824;2023-12-14T06:18:54;36.33;28.00;21.67
55304;PMS7003;65692;51.378;19.824;2023-12-14T06:21:20;38.67;30.00;22.67
55304;PMS7003;65692;51.378;19.824;2023-12-14T06:23:47;34.00;30.50;22.75
55304;PMS7003;65692;51.378;19.824;2023-12-14T06:26:17;37.33;27.00;21.67
55304;PMS7003;65692;51.378;19.824;2023-12-14T06:28:44;41.00;37.00;22.00
55304;PMS7003;65692;51.378;19.824;2023-12-14T06:31:14;38.33;31.00;20.33
55304;PMS7003;65692;51.378;19.824;2023-12-14T06:33:41;34.67;28.33;19.33
55304;PMS7003;65692;51.378;19.824;2023-12-14T06:36:08;34.75;29.25;20.00
55304;PMS7003;65692;51.378;19.824;2023-12-14T06:38:38;32.67;28.33;20.00
55304;PMS7003;65692;51.378;19.824;2023-12-14T06:41:05;36.67;25.67;21.67
55304;PMS7003;65692;51.378;19.824;2023-12-14T06:43:32;38.33;31.00;21.00
55304;PMS7003;65692;51.378;19.824;2023-12-14T06:45:58;61.25;44.25;29.25
55304;PMS7003;65692;51.378;19.824;2023-12-14T06:48:25;102.00;73.25;46.00
55304;PMS7003;65692;51.378;19.824;2023-12-14T06:50:52;185.67;139.00;83.00
55304;PMS7003;65692;51.378;19.824;2023-12-14T06:53:21;179.50;150.50;78.75
55304;PMS7003;65692;51.378;19.824;2023-12-14T06:55:48;283.75;222.00;116.50
55304;PMS7003;65692;51.378;19.824;2023-12-14T06:58:14;309.25;230.50;142.00
55304;PMS7003;65692;51.378;19.824;2023-12-14T07:00:41;338.75;256.00;139.25
55304;PMS7003;65692;51.378;19.824;2023-12-14T07:03:08;113.75;90.00;55.50
55304;PMS7003;65692;51.378;19.824;2023-12-14T07:05:35;138.25;103.75;60.25
55304;PMS7003;65692;51.378;19.824;2023-12-14T07:08:03;46.25;32.50;20.00
55304;PMS7003;65692;51.378;19.824;2023-12-14T07:10:30;71.00;51.75;32.75
55304;PMS7003;65692;51.378;19.824;2023-12-14T07:12:56;41.75;35.00;24.75
55304;PMS7003;65692;51.378;19.824;2023-12-14T07:15:23;48.25;38.50;27.25
55304;PMS7003;65692;51.378;19.824;2023-12-14T07:17:50;45.75;35.00;23.75
55304;PMS7003;65692;51.378;19.824;2023-12-14T07:20:17;37.50;35.50;27.50
55304;PMS7003;65692;51.378;19.824;2023-12-14T07:22:43;28.33;27.33;19.00
55304;PMS7003;65692;51.378;19.824;2023-12-14T07:25:10;28.33;25.67;17.33
55304;PMS7003;65692;51.378;19.824;2023-12-14T07:27:37;36.67;30.00;24.00
55304;PMS7003;65692;51.378;19.824;2023-12-14T07:30:03;35.67;32.33;24.00
55304;PMS7003;65692;51.378;19.824;2023-12-14T07:32:30;27.00;20.67;15.00
55304;PMS7003;65692;51.378;19.824;2023-12-14T07:34:57;30.33;30.33;25.00
55304;PMS7003;65692;51.378;19.824;2023-12-14T07:37:23;33.33;32.33;25.33
55304;PMS7003;65692;51.378;19.824;2023-12-14T07:39:50;33.00;27.33;21.33
55304;PMS7003;65692;51.378;19.824;2023-12-14T07:42:17;33.67;26.67;19.67
55304;PMS7003;65692;51.378;19.824;2023-12-14T07:44:46;34.00;28.33;21.00
55304;PMS7003;65692;51.378;19.824;2023-12-14T07:47:13;36.67;29.67;20.67
55304;PMS7003;65692;51.378;19.824;2023-12-14T07:49:40;42.67;33.00;25.33
55304;PMS7003;65692;51.378;19.824;2023-12-14T07:52:07;39.50;32.25;25.50
55304;PMS7003;65692;51.378;19.824;2023-12-14T07:54:34;30.00;28.00;21.33
55304;PMS7003;65692;51.378;19.824;2023-12-14T07:57:01;43.00;34.00;24.00
55304;PMS7003;65692;51.378;19.824;2023-12-14T07:59:27;41.75;39.25;27.25
55304;PMS7003;65692;51.378;19.824;2023-12-14T08:01:56;48.00;41.00;25.25
55304;PMS7003;65692;51.378;19.824;2023-12-14T08:04:23;61.75;44.25;30.50
55304;PMS7003;65692;51.378;19.824;2023-12-14T08:06:50;61.00;44.50;31.25
55304;PMS7003;65692;51.378;19.824;2023-12-14T08:09:16;43.50;39.00;25.25
55304;PMS7003;65692;51.378;19.824;2023-12-14T08:11:43;50.67;40.67;28.00
55304;PMS7003;65692;51.378;19.824;2023-12-14T08:14:09;44.67;32.33;20.33
55304;PMS7003;65692;51.378;19.824;2023-12-14T08:16:36;51.67;36.67;25.33
55304;PMS7003;65692;51.378;19.824;2023-12-14T08:19:03;43.67;32.67;23.00
55304;PMS7003;65692;51.378;19.824;2023-12-14T08:21:29;34.75;30.00;20.50
55304;PMS7003;65692;51.378;19.824;2023-12-14T08:23:57;35.67;27.00;20.67
55304;PMS7003;65692;51.378;19.824;2023-12-14T08:26:24;30.25;24.50;16.00
55304;PMS7003;65692;51.378;19.824;2023-12-14T08:28:51;33.25;24.75;17.25
55304;PMS7003;65692;51.378;19.824;2023-12-14T08:31:17;32.00;29.33;20.00
55304;PMS7003;65692;51.378;19.824;2023-12-14T08:33:44;32.75;26.25;20.00
55304;PMS7003;65692;51.378;19.824;2023-12-14T08:36:15;30.50;27.25;18.50
55304;PMS7003;65692;51.378;19.824;2023-12-14T08:38:41;45.33;35.33;23.33
55304;PMS7003;65692;51.378;19.824;2023-12-14T08:41:08;41.33;37.00;26.33
55304;PMS7003;65692;51.378;19.824;2023-12-14T08:43:34;48.00;32.00;23.33
55304;PMS7003;65692;51.378;19.824;2023-12-14T08:46:01;35.00;32.67;20.67
55304;PMS7003;65692;51.378;19.824;2023-12-14T08:48:28;38.33;28.00;21.00
55304;PMS7003;65692;51.378;19.824;2023-12-14T08:50:54;66.50;50.50;32.00
55304;PMS7003;65692;51.378;19.824;2023-12-14T08:53:21;61.67;46.33;29.67
55304;PMS7003;65692;51.378;19.824;2023-12-14T08:55:48;61.00;42.75;28.50
55304;PMS7003;65692;51.378;19.824;2023-12-14T08:58:14;39.33;38.33;26.33
55304;PMS7003;65692;51.378;19.824;2023-12-14T09:00:41;29.75;26.25;19.00
55304;PMS7003;65692;51.378;19.824;2023-12-14T09:03:08;30.75;27.75;18.50
55304;PMS7003;65692;51.378;19.824;2023-12-14T09:05:36;39.00;31.33;21.67
55304;PMS7003;65692;51.378;19.824;2023-12-14T09:08:03;40.25;32.00;23.50
55304;PMS7003;65692;51.378;19.824;2023-12-14T09:10:30;31.00;23.75;18.25
55304;PMS7003;65692;51.378;19.824;2023-12-14T09:12:57;31.50;28.75;19.00
55304;PMS7003;65692;51.378;19.824;2023-12-14T09:15:23;45.00;39.67;25.00
55304;PMS7003;65692;51.378;19.824;2023-12-14T09:17:50;59.67;44.33;29.33
55304;PMS7003;65692;51.378;19.824;2023-12-14T09:20:17;49.33;41.67;27.00
55304;PMS7003;65692;51.378;19.824;2023-12-14T09:22:43;46.00;39.00;26.00
55304;PMS7003;65692;51.378;19.824;2023-12-14T09:25:10;38.67;34.00;24.33
55304;PMS7003;65692;51.378;19.824;2023-12-14T09:27:36;32.50;24.25;18.25
55304;PMS7003;65692;51.378;19.824;2023-12-14T09:30:04;33.33;27.00;20.67
55304;PMS7003;65692;51.378;19.824;2023-12-14T09:32:31;24.33;17.00;9.00
55304;PMS7003;65692;51.378;19.824;2023-12-14T09:34:58;39.67;30.67;20.33
55304;PMS7003;65692;51.378;19.824;2023-12-14T09:37:24;50.33;36.00;21.00
55304;PMS7003;65692;51.378;19.824;2023-12-14T09:39:51;43.00;31.67;21.00
55304;PMS7003;65692;51.378;19.824;2023-12-14T09:42:19;39.67;31.67;19.67
55304;PMS7003;65692;51.378;19.824;2023-12-14T09:44:48;44.00;32.67;20.67
55304;PMS7003;65692;51.378;19.824;2023-12-14T09:47:15;46.67;40.33;21.00
55304;PMS7003;65692;51.378;19.824;2023-12-14T09:49:42;35.00;28.00;23.00
55304;PMS7003;65692;51.378;19.824;2023-12-14T09:52:10;49.33;40.67;27.00
55304;PMS7003;65692;51.378;19.824;2023-12-14T09:54:37;56.67;44.67;27.00
55304;PMS7003;65692;51.378;19.824;2023-12-14T09:57:04;58.50;41.50;28.50
55304;PMS7003;65692;51.378;19.824;2023-12-14T09:59:31;60.75;45.25;27.25
55304;PMS7003;65692;51.378;19.824;2023-12-14T10:02:10;43.25;32.75;22.75
55304;PMS7003;65692;51.378;19.824;2023-12-14T10:04:38;62.50;47.25;30.75
55304;PMS7003;65692;51.378;19.824;2023-12-14T10:07:05;52.00;40.00;24.00
55304;PMS7003;65692;51.378;19.824;2023-12-14T10:09:34;45.50;40.25;27.00
55304;PMS7003;65692;51.378;19.824;2023-12-14T10:12:03;55.25;42.00;28.25
55304;PMS7003;65692;51.378;19.824;2023-12-14T10:14:30;33.33;31.67;20.67
55304;PMS7003;65692;51.378;19.824;2023-12-14T10:16:57;49.75;41.50;29.25
55304;PMS7003;65692;51.378;19.824;2023-12-14T10:19:29;60.75;47.25;31.75
55304;PMS7003;65692;51.378;19.824;2023-12-14T10:21:56;57.00;46.50;31.00
55304;PMS7003;65692;51.378;19.824;2023-12-14T10:24:22;41.67;29.00;21.00
55304;PMS7003;65692;51.378;19.824;2023-12-14T10:26:49;51.50;40.25;22.75
55304;PMS7003;65692;51.378;19.824;2023-12-14T10:29:17;67.50;51.00;32.00
55304;PMS7003;65692;51.378;19.824;2023-12-14T10:31:44;59.00;43.25;29.25
55304;PMS7003;65692;51.378;19.824;2023-12-14T10:34:11;70.50;51.75;34.25
55304;PMS7003;65692;51.378;19.824;2023-12-14T10:36:39;57.67;39.67;24.67
55304;PMS7003;65692;51.378;19.824;2023-12-14T10:39:06;54.00;44.75;31.00
55304;PMS7003;65692;51.378;19.824;2023-12-14T10:41:34;71.50;53.50;35.00
55304;PMS7003;65692;51.378;19.824;2023-12-14T10:44:03;74.50;56.50;36.50
55304;PMS7003;65692;51.378;19.824;2023-12-14T10:46:49;78.50;60.00;39.00
55304;PMS7003;65692;51.378;19.824;2023-12-14T10:49:17;74.00;59.00;39.25
55304;PMS7003;65692;51.378;19.824;2023-12-14T10:51:44;104.50;85.50;54.75
55304;PMS7003;65692;51.378;19.824;2023-12-14T10:54:14;150.25;124.50;71.50
55304;PMS7003;65692;51.378;19.824;2023-12-14T10:56:42;41.67;31.33;22.00
55304;PMS7003;65692;51.378;19.824;2023-12-14T10:59:08;65.25;53.00;33.50
55304;PMS7003;65692;51.378;19.824;2023-12-14T11:01:35;65.25;47.50;32.00
55304;PMS7003;65692;51.378;19.824;2023-12-14T11:04:06;51.25;42.50;26.50
55304;PMS7003;65692;51.378;19.824;2023-12-14T11:06:35;59.00;45.50;29.25
55304;PMS7003;65692;51.378;19.824;2023-12-14T11:09:05;79.25;61.00;42.00
55304;PMS7003;65692;51.378;19.824;2023-12-14T11:11:43;54.33;43.00;27.00
55304;PMS7003;65692;51.378;19.824;2023-12-14T11:14:13;61.00;45.33;30.00
55304;PMS7003;65692;51.378;19.824;2023-12-14T11:16:40;60.50;42.75;26.25
55304;PMS7003;65692;51.378;19.824;2023-12-14T11:24:21;62.00;44.50;29.75
55304;PMS7003;65692;51.378;19.824;2023-12-14T11:26:49;62.50;49.00;31.00
55304;PMS7003;65692;51.378;19.824;2023-12-14T11:29:19;48.33;41.67;28.00
55304;PMS7003;65692;51.378;19.824;2023-12-14T11:31:47;48.67;39.33;25.00
55304;PMS7003;65692;51.378;19.824;2023-12-14T11:34:16;36.33;34.00;24.00
55304;PMS7003;65692;51.378;19.824;2023-12-14T11:36:43;48.00;42.00;30.00
55304;PMS7003;65692;51.378;19.824;2023-12-14T11:39:12;50.50;40.00;28.50
55304;PMS7003;65692;51.378;19.824;2023-12-14T11:41:39;50.33;40.67;27.00
55304;PMS7003;65692;51.378;19.824;2023-12-14T11:44:05;43.25;33.00;23.50
55304;PMS7003;65692;51.378;19.824;2023-12-14T11:46:33;32.00;30.00;24.00
55304;PMS7003;65692;51.378;19.824;2023-12-14T11:49:00;43.00;32.67;23.00
55304;PMS7003;65692;51.378;19.824;2023-12-14T11:51:30;43.33;38.00;24.00
55304;PMS7003;65692;51.378;19.824;2023-12-14T11:54:00;43.00;37.67;24.33
55304;PMS7003;65692;51.378;19.824;2023-12-14T11:56:27;31.67;27.00;18.33
55304;PMS7003;65692;51.378;19.824;2023-12-14T11:58:54;26.67;23.67;16.00
55304;PMS7003;65692;51.378;19.824;2023-12-14T12:01:21;42.00;32.67;22.67
55304;PMS7003;65692;51.378;19.824;2023-12-14T12:03:49;35.00;31.33;21.00
55304;PMS7003;65692;51.378;19.824;2023-12-14T12:06:19;42.00;34.67;23.00
55304;PMS7003;65692;51.378;19.824;2023-12-14T12:08:47;37.00;32.33;20.00
55304;PMS7003;65692;51.378;19.824;2023-12-14T12:11:17;44.33;35.00;23.33
55304;PMS7003;65692;51.378;19.824;2023-12-14T12:13:44;56.50;43.25;29.25
55304;PMS7003;65692;51.378;19.824;2023-12-14T12:16:10;52.00;41.00;27.50
55304;PMS7003;65692;51.378;19.824;2023-12-14T12:18:37;34.00;32.00;20.33
55304;PMS7003;65692;51.378;19.824;2023-12-14T12:21:06;39.00;30.67;17.00
55304;PMS7003;65692;51.378;19.824;2023-12-14T12:23:35;39.00;35.33;23.00
55304;PMS7003;65692;51.378;19.824;2023-12-14T12:26:01;36.33;32.33;21.33
55304;PMS7003;65692;51.378;19.824;2023-12-14T12:28:29;36.33;28.67;20.00
55304;PMS7003;65692;51.378;19.824;2023-12-14T12:30:56;33.33;19.33;11.00
55304;PMS7003;65692;51.378;19.824;2023-12-14T12:33:23;38.00;30.00;21.00
55304;PMS7003;65692;51.378;19.824;2023-12-14T12:35:52;32.67;28.67;22.00
55304;PMS7003;65692;51.378;19.824;2023-12-14T12:38:19;28.67;23.00;20.67
55304;PMS7003;65692;51.378;19.824;2023-12-14T12:40:46;31.00;25.67;18.00
55304;PMS7003;65692;51.378;19.824;2023-12-14T12:43:13;39.67;33.33;23.00
55304;PMS7003;65692;51.378;19.824;2023-12-14T12:45:40;26.25;22.25;15.75
55304;PMS7003;65692;51.378;19.824;2023-12-14T12:48:07;48.00;39.00;26.00
55304;PMS7003;65692;51.378;19.824;2023-12-14T12:50:34;37.00;26.67;19.00
55304;PMS7003;65692;51.378;19.824;2023-12-14T12:53:01;42.67;37.33;27.33
55304;PMS7003;65692;51.378;19.824;2023-12-14T12:55:28;41.33;37.00;27.00
55304;PMS7003;65692;51.378;19.824;2023-12-14T12:57:55;33.67;29.00;18.33
55304;PMS7003;65692;51.378;19.824;2023-12-14T13:00:21;37.00;34.67;23.00
55304;PMS7003;65692;51.378;19.824;2023-12-14T13:02:49;40.00;34.00;26.00
55304;PMS7003;65692;51.378;19.824;2023-12-14T13:05:16;30.67;22.67;16.00
55304;PMS7003;65692;51.378;19.824;2023-12-14T13:07:44;44.00;35.33;23.33
55304;PMS7003;65692;51.378;19.824;2023-12-14T13:10:12;50.00;39.00;25.75
55304;PMS7003;65692;51.378;19.824;2023-12-14T13:12:54;50.00;42.50;27.00
55304;PMS7003;65692;51.378;19.824;2023-12-14T13:15:21;42.50;31.25;23.75
55304;PMS7003;65692;51.378;19.824;2023-12-14T13:17:50;34.67;29.67;21.00
55304;PMS7003;65692;51.378;19.824;2023-12-14T13:20:17;32.00;26.67;17.00
55304;PMS7003;65692;51.378;19.824;2023-12-14T13:22:44;42.67;37.67;25.33
55304;PMS7003;65692;51.378;19.824;2023-12-14T13:25:11;42.00;33.67;22.33
55304;PMS7003;65692;51.378;19.824;2023-12-14T13:27:38;30.33;24.67;20.67
55304;PMS7003;65692;51.378;19.824;2023-12-14T13:30:05;52.75;34.25;24.50
55304;PMS7003;65692;51.378;19.824;2023-12-14T13:32:32;35.00;27.00;16.00
55304;PMS7003;65692;51.378;19.824;2023-12-14T13:34:59;48.25;37.75;27.00
55304;PMS7003;65692;51.378;19.824;2023-12-14T13:37:26;56.50;42.25;28.50
55304;PMS7003;65692;51.378;19.824;2023-12-14T13:39:53;40.67;32.33;21.33